Terminal Aerodrome Forecast
Issued by NWS Wilmington, OH

Home | Current Version | Previous Version | Text Only | Print | Product List | Glossary On
Versions: 1 2 3 4 5 6 7 8 9 10 11 12 13 14 15 16 17 18 19
000
FTUS41 KILN 101411 AAA
TAFDAY
TAF AMD
KDAY 101411Z 1014/1112 24008KT P6SM OVC035
      TEMPO 1014/1016 OVC028
     FM101700 26011KT P6SM SCT030 BKN090
     FM110000 14006KT P6SM VCSH BKN060=

USA.gov is the U.S. government's official web portal to all federal, state and local government web resources and services.